createdAt,value
2022-08-24T00:01:55.473Z,3.03
2022-08-24T00:04:23.958Z,5.37
2022-08-24T00:06:52.888Z,5.20
2022-08-24T00:09:20.945Z,4.87
2022-08-24T00:11:49.032Z,5.73
2022-08-24T00:14:19.378Z,5.07
2022-08-24T00:16:48.051Z,3.37
2022-08-24T00:19:16.297Z,2.87
2022-08-24T00:21:44.539Z,3.67
2022-08-24T00:24:12.792Z,6.70
2022-08-24T00:26:40.812Z,3.47
2022-08-24T00:29:09.004Z,3.77
2022-08-24T00:31:38.530Z,4.13
2022-08-24T00:34:07.379Z,7.33
2022-08-24T00:36:36.037Z,4.07
2022-08-24T00:39:06.371Z,5.50
2022-08-24T00:41:34.827Z,5.23
2022-08-24T00:44:05.682Z,5.03
2022-08-24T00:46:43.490Z,4.77
2022-08-24T00:49:18.511Z,3.13
2022-08-24T00:51:55.509Z,5.10
2022-08-24T00:54:26.019Z,3.97
2022-08-24T00:57:03.502Z,3.53
2022-08-24T00:59:35.189Z,3.43
2022-08-24T01:02:15.402Z,3.40
2022-08-24T01:04:49.759Z,4.87
2022-08-24T01:07:18.189Z,3.77
2022-08-24T01:09:46.382Z,4.33
2022-08-24T01:12:14.539Z,6.03
2022-08-24T01:14:42.630Z,4.17
2022-08-24T01:17:29.626Z,4.47
2022-08-24T01:19:59.791Z,4.13
2022-08-24T01:22:47.614Z,4.70
2022-08-24T01:25:17.759Z,4.33
2022-08-24T01:27:47.640Z,3.50
2022-08-24T01:30:18.625Z,4.03
2022-08-24T01:32:55.170Z,4.47
2022-08-24T01:35:23.712Z,5.37
2022-08-24T01:37:54.430Z,5.10
2022-08-24T01:40:37.906Z,6.90
2022-08-24T01:43:08.205Z,4.53
2022-08-24T01:45:36.273Z,4.63
2022-08-24T01:48:06.241Z,4.93
2022-08-24T01:50:35.018Z,3.50
2022-08-24T01:53:06.230Z,4.63
2022-08-24T01:55:36.875Z,3.93
2022-08-24T01:58:06.251Z,3.43
2022-08-24T02:00:36.570Z,4.00
2022-08-24T02:03:05.353Z,3.80
2022-08-24T02:05:34.528Z,4.13
2022-08-24T02:08:02.678Z,6.63
2022-08-24T02:10:31.683Z,4.50
2022-08-24T02:13:01.113Z,5.07
2022-08-24T02:15:32.925Z,5.73
2022-08-24T02:18:01.917Z,4.13
2022-08-24T02:20:30.365Z,4.47
2022-08-24T02:22:58.768Z,4.03
2022-08-24T02:25:30.399Z,5.60
2022-08-24T02:28:01.013Z,5.20
2022-08-24T02:30:30.036Z,6.27
2022-08-24T02:32:59.028Z,3.83
2022-08-24T02:35:28.475Z,3.50
2022-08-24T02:37:56.816Z,4.70
2022-08-24T02:40:25.593Z,6.43
2022-08-24T02:42:54.154Z,6.07
2022-08-24T02:45:24.237Z,5.53
2022-08-24T02:47:52.298Z,4.77
2022-08-24T02:50:21.445Z,3.90
2022-08-24T02:52:50.226Z,4.43
2022-08-24T02:55:20.602Z,4.73
2022-08-24T02:57:52.121Z,4.20
2022-08-24T03:00:23.251Z,4.77
2022-08-24T03:02:56.666Z,4.50
2022-08-24T03:05:26.003Z,5.37
2022-08-24T03:07:54.645Z,4.40
2022-08-24T03:10:22.836Z,4.33
2022-08-24T03:12:51.129Z,3.80
2022-08-24T03:15:22.688Z,4.13
2022-08-24T03:17:51.819Z,4.13
2022-08-24T03:20:23.652Z,4.57
2022-08-24T03:22:52.165Z,9.30
2022-08-24T03:25:24.443Z,9.50
2022-08-24T03:27:53.065Z,5.87
2022-08-24T03:30:21.820Z,5.13
2022-08-24T03:32:50.855Z,4.47
2022-08-24T03:35:22.023Z,4.07
2022-08-24T03:37:50.490Z,4.10
2022-08-24T03:40:22.841Z,4.77
2022-08-24T03:42:55.584Z,5.00
2022-08-24T03:45:24.082Z,5.40
2022-08-24T03:47:53.264Z,4.23
2022-08-24T03:50:24.263Z,4.50
2022-08-24T03:52:53.122Z,7.30
2022-08-24T03:55:21.454Z,7.30
2022-08-24T03:57:49.481Z,4.90
2022-08-24T04:00:18.051Z,5.20
2022-08-24T04:02:55.201Z,5.53
2022-08-24T04:05:27.075Z,5.13
2022-08-24T04:07:55.576Z,6.27
2022-08-24T04:10:24.488Z,7.03
2022-08-24T04:12:54.961Z,5.23
2022-08-24T04:15:24.422Z,6.20
2022-08-24T04:17:53.034Z,5.00
2022-08-24T04:20:21.079Z,5.50
2022-08-24T04:22:53.790Z,6.80
2022-08-24T04:25:25.291Z,4.73
2022-08-24T04:27:53.616Z,7.83
2022-08-24T04:30:24.693Z,5.00
2022-08-24T04:33:06.628Z,5.50
2022-08-24T04:35:39.003Z,4.73
2022-08-24T04:38:09.318Z,4.60
2022-08-24T04:40:40.563Z,4.90
2022-08-24T04:43:10.294Z,5.93
2022-08-24T04:45:40.101Z,6.07
2022-08-24T04:48:09.165Z,5.53
2022-08-24T04:50:37.566Z,4.50
2022-08-24T04:53:08.461Z,6.10
2022-08-24T04:55:44.888Z,5.50
2022-08-24T04:58:14.189Z,5.67
2022-08-24T05:00:42.433Z,5.80
2022-08-24T05:03:11.294Z,5.47
2022-08-24T05:05:42.585Z,5.17
2022-08-24T05:08:12.400Z,4.40
2022-08-24T05:10:42.489Z,7.10
2022-08-24T05:13:11.239Z,6.53
2022-08-24T05:15:43.072Z,5.37
2022-08-24T05:18:13.290Z,6.93
2022-08-24T05:20:42.548Z,6.73
2022-08-24T05:23:13.677Z,6.57
2022-08-24T05:25:43.264Z,4.47
2022-08-24T05:28:11.306Z,5.17
2022-08-24T05:30:42.749Z,4.97
2022-08-24T05:33:12.567Z,5.50
2022-08-24T05:35:43.825Z,5.30
2022-08-24T05:38:14.056Z,4.23
2022-08-24T05:40:43.652Z,6.43
2022-08-24T05:43:12.554Z,5.17
2022-08-24T05:45:43.400Z,5.03
2022-08-24T05:48:12.735Z,7.37
2022-08-24T05:50:59.709Z,4.83
2022-08-24T05:53:33.827Z,6.63
2022-08-24T05:56:04.963Z,8.70
2022-08-24T05:58:33.099Z,5.93
2022-08-24T06:01:08.332Z,5.70
2022-08-24T06:03:36.482Z,5.80
2022-08-24T06:06:07.411Z,7.83
2022-08-24T06:08:41.451Z,6.63
2022-08-24T06:11:11.712Z,10.67
2022-08-24T06:13:40.200Z,10.80
2022-08-24T06:16:21.289Z,11.40
2022-08-24T06:18:51.512Z,8.30
2022-08-24T06:21:22.332Z,11.47
2022-08-24T06:23:52.093Z,7.37
2022-08-24T06:26:39.016Z,6.93
2022-08-24T06:29:08.012Z,7.50
2022-08-24T06:31:44.658Z,11.27
2022-08-24T06:34:17.412Z,8.63
2022-08-24T06:36:46.104Z,9.73
2022-08-24T06:39:15.849Z,9.90
2022-08-24T06:41:46.792Z,6.23
2022-08-24T06:44:21.585Z,8.40
2022-08-24T06:46:56.980Z,6.17
2022-08-24T06:49:25.354Z,8.90
2022-08-24T06:51:53.520Z,6.67
2022-08-24T06:54:23.029Z,8.60
2022-08-24T06:56:51.536Z,8.20
2022-08-24T06:59:20.752Z,7.30
2022-08-24T07:01:49.364Z,14.50
2022-08-24T07:04:18.935Z,8.20
2022-08-24T07:07:05.841Z,6.57
2022-08-24T07:09:35.942Z,7.60
2022-08-24T07:12:04.601Z,7.53
2022-08-24T07:14:32.730Z,9.10
2022-08-24T07:17:02.915Z,7.17
2022-08-24T07:19:33.039Z,8.23
2022-08-24T07:22:01.957Z,8.13
2022-08-24T07:24:29.926Z,12.57
2022-08-24T07:27:00.272Z,7.40
2022-08-24T07:29:47.286Z,10.60
2022-08-24T07:32:17.425Z,14.57
2022-08-24T07:34:46.934Z,6.07
2022-08-24T07:37:15.069Z,5.83
2022-08-24T07:39:47.426Z,9.63
2022-08-24T07:42:26.887Z,10.40
2022-08-24T07:45:00.403Z,8.60
2022-08-24T07:47:38.151Z,5.70
2022-08-24T07:50:17.598Z,8.77
2022-08-24T07:52:46.703Z,9.00
2022-08-24T07:55:15.875Z,10.47
2022-08-24T07:57:46.220Z,7.63
2022-08-24T08:00:17.145Z,9.90
2022-08-24T08:02:50.455Z,7.30
2022-08-24T08:05:22.603Z,9.03
2022-08-24T08:07:53.877Z,5.53
2022-08-24T08:10:23.331Z,6.87
2022-08-24T08:12:54.112Z,9.93
2022-08-24T08:15:22.229Z,5.50
2022-08-24T08:18:11.035Z,3.67
2022-08-24T08:20:42.816Z,3.67
2022-08-24T08:23:29.029Z,5.97
2022-08-24T08:26:15.277Z,3.43
2022-08-24T08:28:58.642Z,6.60
2022-08-24T08:31:26.766Z,5.30
2022-08-24T08:33:55.414Z,4.60
2022-08-24T08:36:24.937Z,3.03
2022-08-24T08:38:53.085Z,5.83
2022-08-24T08:42:07.325Z,4.93
2022-08-24T08:45:04.254Z,5.13
2022-08-24T08:48:11.627Z,6.37
2022-08-24T08:51:12.132Z,5.97
2022-08-24T08:54:12.545Z,3.07
2022-08-24T08:56:50.058Z,5.60
2022-08-24T08:59:36.686Z,4.20
2022-08-24T09:02:27.493Z,5.27
2022-08-24T09:05:48.584Z,7.85
2022-08-24T09:08:29.020Z,4.82
2022-08-24T09:11:01.832Z,4.37
2022-08-24T09:13:54.504Z,2.80
2022-08-24T09:17:10.872Z,2.88
2022-08-24T09:20:00.398Z,5.30
2022-08-24T09:22:28.667Z,3.27
2022-08-24T09:25:26.658Z,4.32
2022-08-24T09:28:21.464Z,2.88
2022-08-24T09:31:29.047Z,3.75
2022-08-24T09:34:09.468Z,2.95
2022-08-24T09:36:54.886Z,2.63
2022-08-24T09:39:37.822Z,1.88
2022-08-24T09:42:46.007Z,1.92
2022-08-24T09:46:02.533Z,2.63
2022-08-24T09:48:47.568Z,3.25
2022-08-24T09:51:43.842Z,4.35
2022-08-24T09:54:59.207Z,2.75
2022-08-24T09:57:59.801Z,1.45
2022-08-24T10:00:32.009Z,1.73
2022-08-24T10:03:08.304Z,3.35
2022-08-24T10:06:04.534Z,2.67
2022-08-24T10:08:56.151Z,5.18
2022-08-24T10:11:35.638Z,4.55
2022-08-24T10:14:10.562Z,2.08
2022-08-24T10:16:45.761Z,2.95
2022-08-24T10:19:31.507Z,2.85
2022-08-24T10:22:14.179Z,3.03
2022-08-24T10:25:08.964Z,3.17
2022-08-24T10:27:56.558Z,2.90
2022-08-24T10:30:56.598Z,2.25
2022-08-24T10:33:28.281Z,2.67
2022-08-24T10:36:26.008Z,4.50
2022-08-24T10:39:40.682Z,3.80
2022-08-24T10:42:54.917Z,3.90
2022-08-24T10:45:49.670Z,2.30
2022-08-24T10:48:37.121Z,1.55
2022-08-24T10:51:24.541Z,5.40
2022-08-24T10:53:54.865Z,2.95
2022-08-24T10:56:35.996Z,8.73
2022-08-24T10:59:16.692Z,2.97
2022-08-24T11:02:02.785Z,1.30
2022-08-24T11:04:40.586Z,4.32
2022-08-24T11:07:16.898Z,8.15
2022-08-24T11:09:48.646Z,2.28
2022-08-24T11:12:27.469Z,6.47
2022-08-24T11:14:57.983Z,3.25
2022-08-24T11:17:30.632Z,3.55
2022-08-24T11:19:59.314Z,4.93
2022-08-24T11:22:58.968Z,5.00
2022-08-24T11:25:30.257Z,1.70
2022-08-24T11:28:09.147Z,2.63
2022-08-24T11:30:41.117Z,1.30
2022-08-24T11:33:28.272Z,2.17
2022-08-24T11:35:57.370Z,1.42
2022-08-24T11:38:27.635Z,2.03
2022-08-24T11:41:03.311Z,3.95
2022-08-24T11:43:53.544Z,2.80
2022-08-24T11:46:33.515Z,1.48
2022-08-24T11:49:10.745Z,1.85
2022-08-24T11:51:49.744Z,1.48
2022-08-24T11:54:27.674Z,1.67
2022-08-24T11:57:12.280Z,4.03
2022-08-24T11:59:51.714Z,1.75
2022-08-24T12:02:27.765Z,5.28
2022-08-24T12:05:04.660Z,1.98
2022-08-24T12:07:51.670Z,2.95
2022-08-24T12:10:32.127Z,5.97
2022-08-24T12:13:07.460Z,3.75
2022-08-24T12:15:45.899Z,1.45
2022-08-24T12:18:27.212Z,2.28
2022-08-24T12:20:58.294Z,3.28
2022-08-24T12:23:33.090Z,3.28
2022-08-24T12:26:05.623Z,1.40
2022-08-24T12:28:39.329Z,2.17
2022-08-24T12:31:16.852Z,2.30
2022-08-24T12:33:49.940Z,1.30
2022-08-24T12:36:29.577Z,1.88
2022-08-24T12:39:09.889Z,3.38
2022-08-24T12:41:44.579Z,1.73
2022-08-24T12:44:16.036Z,2.28
2022-08-24T12:46:44.931Z,1.50
2022-08-24T12:49:20.684Z,3.75
2022-08-24T12:52:05.326Z,1.40
2022-08-24T12:54:50.468Z,3.33
2022-08-24T12:57:35.781Z,1.65
2022-08-24T13:00:10.150Z,1.52
2022-08-24T13:02:47.909Z,4.70
2022-08-24T13:05:19.132Z,1.35
2022-08-24T13:07:51.733Z,2.72
2022-08-24T13:10:37.760Z,2.30
2022-08-24T13:13:20.984Z,3.17
2022-08-24T13:15:56.441Z,1.33
2022-08-24T13:18:53.469Z,3.05
2022-08-24T13:21:44.119Z,1.98
2022-08-24T13:24:50.216Z,2.10
2022-08-24T13:28:01.790Z,1.88
2022-08-24T13:30:53.513Z,1.42
2022-08-24T13:33:31.307Z,1.55
2022-08-24T13:36:06.719Z,1.48
2022-08-24T13:39:00.693Z,4.50
2022-08-24T13:41:55.113Z,2.05
2022-08-24T13:44:38.393Z,5.80
2022-08-24T13:47:15.258Z,1.40
2022-08-24T13:49:54.185Z,1.77
2022-08-24T13:52:31.733Z,1.40
2022-08-24T13:55:29.396Z,1.88
2022-08-24T13:58:11.806Z,3.08
2022-08-24T14:00:45.431Z,1.95
2022-08-24T14:03:45.947Z,1.58
2022-08-24T14:06:28.735Z,2.47
2022-08-24T14:09:19.262Z,1.40
2022-08-24T14:12:16.798Z,2.15
2022-08-24T14:15:11.831Z,2.47
2022-08-24T14:18:03.591Z,1.90
2022-08-24T14:21:05.621Z,5.82
2022-08-24T14:23:50.150Z,2.15
2022-08-24T14:27:01.422Z,1.45
2022-08-24T14:29:40.406Z,1.88
2022-08-24T14:32:47.580Z,4.47
2022-08-24T14:35:32.938Z,2.80
2022-08-24T14:38:30.808Z,2.70
2022-08-24T14:41:07.574Z,1.58
2022-08-24T14:43:53.681Z,2.45
2022-08-24T14:46:33.803Z,2.35
2022-08-24T14:49:13.827Z,2.95
2022-08-24T14:52:01.942Z,2.42
2022-08-24T14:54:41.220Z,1.95
2022-08-24T14:57:24.235Z,1.92
2022-08-24T15:00:08.352Z,1.40
2022-08-24T15:03:16.572Z,3.10
2022-08-24T15:06:25.692Z,1.58
2022-08-24T15:08:55.752Z,2.30
2022-08-24T15:11:27.247Z,1.42
2022-08-24T15:13:58.783Z,1.85
2022-08-24T15:16:34.157Z,2.95
2022-08-24T15:19:08.760Z,2.55
2022-08-24T15:21:49.920Z,2.58
2022-08-24T15:24:33.010Z,2.70
2022-08-24T15:27:10.808Z,1.67
2022-08-24T15:29:51.007Z,1.63
2022-08-24T15:32:19.455Z,2.67
2022-08-24T15:34:51.141Z,2.00
2022-08-24T15:37:30.408Z,2.90
2022-08-24T15:39:59.605Z,2.80
2022-08-24T15:42:30.377Z,1.80
2022-08-24T15:45:02.125Z,2.20
2022-08-24T15:47:32.796Z,1.40
2022-08-24T15:50:03.604Z,1.77
2022-08-24T15:52:50.643Z,2.70
2022-08-24T15:55:33.414Z,3.47
2022-08-24T15:58:34.487Z,2.30
2022-08-24T16:01:38.929Z,2.00
2022-08-24T16:04:09.762Z,1.75
2022-08-24T16:06:42.344Z,2.70
2022-08-24T16:09:17.233Z,1.45
2022-08-24T16:11:49.780Z,2.17
2022-08-24T16:14:28.413Z,5.97
2022-08-24T16:16:57.810Z,2.42
2022-08-24T16:19:28.520Z,5.72
2022-08-24T16:22:01.305Z,1.67
2022-08-24T16:24:34.111Z,1.65
2022-08-24T16:27:07.728Z,3.88
2022-08-24T16:29:59.705Z,4.13
2022-08-24T16:32:31.672Z,1.63
2022-08-24T16:35:17.667Z,2.95
2022-08-24T16:37:45.745Z,2.15
2022-08-24T16:40:15.300Z,1.50
2022-08-24T16:42:43.649Z,3.47
2022-08-24T16:45:14.910Z,1.90
2022-08-24T16:47:43.014Z,1.60
2022-08-24T16:50:11.256Z,2.05
2022-08-24T16:52:39.558Z,1.92
2022-08-24T16:55:08.807Z,2.30
2022-08-24T16:57:39.480Z,1.67
2022-08-24T17:00:10.194Z,3.15
2022-08-24T17:02:38.209Z,2.45
2022-08-24T17:05:06.949Z,4.43
2022-08-24T17:07:35.039Z,1.80
2022-08-24T17:10:05.772Z,2.20
2022-08-24T17:12:36.001Z,2.00
2022-08-24T17:15:06.149Z,1.73
2022-08-24T17:17:35.093Z,2.10
2022-08-24T17:20:03.820Z,1.80
2022-08-24T17:22:32.334Z,1.77
2022-08-24T17:25:00.608Z,2.03
2022-08-24T17:27:33.188Z,2.50
2022-08-24T17:30:03.241Z,3.97
2022-08-24T17:32:33.085Z,2.38
2022-08-24T17:35:03.111Z,1.92
2022-08-24T17:37:31.368Z,1.60
2022-08-24T17:40:00.982Z,1.60
2022-08-24T17:42:49.541Z,2.00
2022-08-24T17:45:17.472Z,3.30
2022-08-24T17:47:47.308Z,1.70
2022-08-24T17:50:16.436Z,3.47
2022-08-24T17:52:45.099Z,2.33
2022-08-24T17:55:17.146Z,3.67
2022-08-24T17:57:52.595Z,1.80
2022-08-24T18:00:20.865Z,2.95
2022-08-24T18:02:50.728Z,2.80
2022-08-24T18:05:19.616Z,2.22
2022-08-24T18:07:54.316Z,1.70
2022-08-24T18:10:25.126Z,1.65
2022-08-24T18:12:53.527Z,2.35
2022-08-24T18:15:22.020Z,4.53
2022-08-24T18:18:09.385Z,4.95
2022-08-24T18:20:41.089Z,2.95
2022-08-24T18:23:11.389Z,3.22
2022-08-24T18:25:43.930Z,2.53
2022-08-24T18:28:12.330Z,3.00
2022-08-24T18:30:41.547Z,2.15
2022-08-24T18:33:10.855Z,3.30
2022-08-24T18:35:39.121Z,3.17
2022-08-24T18:38:07.240Z,2.15
2022-08-24T18:40:36.221Z,3.30
2022-08-24T18:43:05.273Z,2.58
2022-08-24T18:45:35.139Z,2.45
2022-08-24T18:48:03.891Z,3.70
2022-08-24T18:50:37.671Z,3.42
2022-08-24T18:53:09.474Z,2.88
2022-08-24T18:55:39.022Z,2.83
2022-08-24T18:58:07.645Z,3.78
2022-08-24T19:00:36.440Z,2.65
2022-08-24T19:03:08.251Z,2.92
2022-08-24T19:05:38.368Z,2.55
2022-08-24T19:08:06.598Z,3.45
2022-08-24T19:10:37.545Z,3.80
2022-08-24T19:13:09.679Z,2.40
2022-08-24T19:15:40.331Z,2.67
2022-08-24T19:18:09.812Z,3.50
2022-08-24T19:20:44.520Z,6.80
2022-08-24T19:23:20.312Z,5.50
2022-08-24T19:25:49.425Z,2.85
2022-08-24T19:28:18.747Z,7.68
2022-08-24T19:30:48.882Z,3.10
2022-08-24T19:33:24.108Z,2.50
2022-08-24T19:35:54.033Z,3.25
2022-08-24T19:38:25.742Z,4.50
2022-08-24T19:40:57.007Z,3.70
2022-08-24T19:43:26.766Z,4.57
2022-08-24T19:46:05.713Z,5.50
2022-08-24T19:48:36.091Z,2.20
2022-08-24T19:51:09.759Z,2.23
2022-08-24T19:53:39.487Z,2.72
2022-08-24T19:56:08.874Z,3.83
2022-08-24T19:58:46.355Z,4.80
2022-08-24T20:01:19.980Z,2.57
2022-08-24T20:03:48.165Z,3.30
2022-08-24T20:06:21.101Z,3.97
2022-08-24T20:08:49.667Z,4.80
2022-08-24T20:11:19.039Z,2.63
2022-08-24T20:13:50.205Z,3.27
2022-08-24T20:16:20.395Z,6.67
2022-08-24T20:18:48.891Z,3.27
2022-08-24T20:21:18.605Z,3.97
2022-08-24T20:23:47.797Z,6.73
2022-08-24T20:26:16.796Z,6.00
2022-08-24T20:28:49.062Z,2.83
2022-08-24T20:31:18.707Z,4.03
2022-08-24T20:33:47.030Z,4.03
2022-08-24T20:36:23.882Z,3.43
2022-08-24T20:38:52.260Z,3.00
2022-08-24T20:41:20.330Z,3.77
2022-08-24T20:43:49.086Z,4.67
2022-08-24T20:46:17.557Z,6.03
2022-08-24T20:48:47.521Z,4.33
2022-08-24T20:51:25.569Z,4.03
2022-08-24T20:53:53.702Z,4.03
2022-08-24T20:56:31.078Z,2.70
2022-08-24T20:58:59.995Z,3.00
2022-08-24T21:01:28.014Z,4.30
2022-08-24T21:03:57.748Z,3.50
2022-08-24T21:06:32.280Z,3.33
2022-08-24T21:09:00.687Z,3.17
2022-08-24T21:11:29.307Z,4.57
2022-08-24T21:13:57.313Z,2.70
2022-08-24T21:16:25.301Z,3.23
2022-08-24T21:18:53.598Z,3.50
2022-08-24T21:21:21.648Z,3.00
2022-08-24T21:23:50.940Z,2.90
2022-08-24T21:26:24.897Z,3.23
2022-08-24T21:28:53.122Z,3.40
2022-08-24T21:31:21.184Z,5.50
2022-08-24T21:34:06.538Z,4.73
2022-08-24T21:36:34.575Z,3.07
2022-08-24T21:39:08.772Z,3.33
2022-08-24T21:41:39.374Z,5.50
2022-08-24T21:44:07.646Z,5.93
2022-08-24T21:46:38.209Z,3.03
2022-08-24T21:49:06.681Z,3.63
2022-08-24T21:51:34.688Z,3.30
2022-08-24T21:54:04.065Z,2.93
2022-08-24T21:56:33.417Z,3.07
2022-08-24T21:59:02.757Z,3.37
2022-08-24T22:01:30.897Z,3.60
2022-08-24T22:03:59.458Z,4.63
2022-08-24T22:06:31.312Z,3.60
2022-08-24T22:09:00.218Z,4.73
2022-08-24T22:11:30.649Z,3.00
2022-08-24T22:13:59.068Z,3.13
2022-08-24T22:16:27.153Z,4.07
2022-08-24T22:18:55.509Z,2.60
2022-08-24T22:21:25.439Z,2.73
2022-08-24T22:23:53.404Z,2.70
2022-08-24T22:26:25.549Z,3.07
2022-08-24T22:28:56.613Z,4.43
2022-08-24T22:31:27.348Z,3.23
2022-08-24T22:33:58.108Z,2.87
2022-08-24T22:36:28.096Z,5.87
2022-08-24T22:38:57.018Z,4.63
2022-08-24T22:41:25.558Z,4.87
2022-08-24T22:44:13.586Z,3.43
2022-08-24T22:46:42.020Z,4.17
2022-08-24T22:49:11.080Z,3.17
2022-08-24T22:51:39.896Z,4.77
2022-08-24T22:54:09.119Z,3.30
2022-08-24T22:56:41.674Z,2.83
2022-08-24T22:59:16.245Z,3.30
2022-08-24T23:01:46.300Z,2.37
2022-08-24T23:04:19.159Z,3.60
2022-08-24T23:06:47.653Z,4.23
2022-08-24T23:09:15.711Z,2.47
2022-08-24T23:11:43.937Z,4.13
2022-08-24T23:14:14.588Z,3.57
2022-08-24T23:16:47.658Z,3.10
2022-08-24T23:19:34.268Z,4.03
2022-08-24T23:22:02.511Z,3.30
2022-08-24T23:24:31.009Z,2.83
2022-08-24T23:26:59.115Z,3.27
2022-08-24T23:29:28.567Z,3.00
2022-08-24T23:31:56.642Z,2.80
2022-08-24T23:34:24.620Z,3.17
2022-08-24T23:36:52.695Z,3.27
2022-08-24T23:39:21.348Z,5.53
2022-08-24T23:41:50.793Z,7.57
2022-08-24T23:44:21.792Z,4.37
2022-08-24T23:46:51.203Z,5.93
2022-08-24T23:49:20.954Z,3.77
2022-08-24T23:51:49.303Z,4.40
2022-08-24T23:54:18.617Z,3.43
2022-08-24T23:56:47.993Z,2.83
2022-08-24T23:59:18.957Z,3.87
